createdAt,value
2019-03-08T00:01:09.719Z,8.60
2019-03-08T00:03:45.243Z,8.50
2019-03-08T00:06:22.664Z,8.40
2019-03-08T00:08:58.340Z,8.30
2019-03-08T00:11:31.768Z,8.30
2019-03-08T00:14:06.328Z,8.30
2019-03-08T00:16:40.726Z,8.30
2019-03-08T00:19:14.685Z,8.40
2019-03-08T00:22:02.912Z,8.50
2019-03-08T00:24:37.414Z,8.60
2019-03-08T00:27:15.638Z,8.60
2019-03-08T00:29:49.881Z,8.60
2019-03-08T00:32:23.683Z,8.60
2019-03-08T00:34:58.270Z,8.60
2019-03-08T00:37:35.294Z,8.60
2019-03-08T00:40:12.864Z,8.60
2019-03-08T00:42:46.783Z,8.60
2019-03-08T00:45:20.456Z,8.60
2019-03-08T00:47:54.507Z,8.60
2019-03-08T00:50:27.905Z,8.60
2019-03-08T00:53:04.080Z,8.50
2019-03-08T00:55:38.301Z,8.40
2019-03-08T00:58:13.121Z,8.20
2019-03-08T01:00:48.151Z,8.00
2019-03-08T01:03:22.082Z,7.80
2019-03-08T01:05:56.052Z,7.70
2019-03-08T01:08:31.056Z,7.70
2019-03-08T01:11:05.623Z,7.60
2019-03-08T01:13:41.176Z,7.50
2019-03-08T01:16:17.958Z,7.50
2019-03-08T01:18:51.886Z,7.40
2019-03-08T01:21:26.397Z,7.40
2019-03-08T01:24:00.509Z,7.40
2019-03-08T01:26:35.277Z,7.40
2019-03-08T01:29:09.888Z,7.30
2019-03-08T01:31:43.697Z,7.30
2019-03-08T01:34:20.235Z,7.30
2019-03-08T01:36:54.431Z,7.20
2019-03-08T01:39:28.702Z,7.20
2019-03-08T01:42:02.491Z,7.20
2019-03-08T01:44:36.298Z,7.20
2019-03-08T01:47:12.593Z,7.10
2019-03-08T01:49:47.409Z,7.10
2019-03-08T01:52:23.183Z,7.10
2019-03-08T01:54:59.658Z,7.10
2019-03-08T01:57:37.601Z,7.10
2019-03-08T02:00:15.842Z,7.10
2019-03-08T02:02:50.831Z,7.10
2019-03-08T02:05:25.176Z,7.10
2019-03-08T02:07:59.733Z,7.10
2019-03-08T02:10:34.994Z,7.10
2019-03-08T02:13:09.181Z,7.10
2019-03-08T02:15:43.523Z,7.10
2019-03-08T02:18:18.945Z,7.10
2019-03-08T02:20:53.361Z,7.10
2019-03-08T02:23:29.066Z,7.10
2019-03-08T02:26:03.466Z,7.10
2019-03-08T02:28:37.952Z,7.10
2019-03-08T02:31:11.591Z,7.10
2019-03-08T02:33:46.185Z,7.10
2019-03-08T02:36:24.431Z,7.10
2019-03-08T02:39:11.637Z,7.00
2019-03-08T02:41:57.840Z,7.00
2019-03-08T02:44:34.542Z,7.10
2019-03-08T02:47:15.208Z,7.10
2019-03-08T02:50:07.275Z,7.10
2019-03-08T02:52:41.997Z,7.10
2019-03-08T02:55:20.461Z,7.10
2019-03-08T02:57:55.281Z,7.10
2019-03-08T03:01:02.193Z,7.00
2019-03-08T03:03:39.027Z,7.00
2019-03-08T03:06:13.042Z,6.90
2019-03-08T03:08:47.649Z,6.90
2019-03-08T03:11:22.877Z,6.80
2019-03-08T03:13:57.284Z,6.70
2019-03-08T03:16:32.246Z,6.70
2019-03-08T03:19:06.036Z,6.60
2019-03-08T03:21:41.905Z,6.60
2019-03-08T03:24:15.587Z,6.60
2019-03-08T03:26:50.572Z,6.60
2019-03-08T03:29:25.200Z,6.60
2019-03-08T03:32:03.241Z,6.50
2019-03-08T03:34:36.935Z,6.50
2019-03-08T03:37:10.805Z,6.50
2019-03-08T03:39:45.139Z,6.50
2019-03-08T03:42:19.164Z,6.50
2019-03-08T03:44:53.466Z,6.50
2019-03-08T03:47:29.183Z,6.50
2019-03-08T03:50:02.542Z,6.50
2019-03-08T03:52:42.947Z,6.50
2019-03-08T03:55:26.884Z,6.40
2019-03-08T03:58:00.513Z,6.50
2019-03-08T04:00:34.897Z,6.50
2019-03-08T04:03:10.668Z,6.50
2019-03-08T04:06:05.406Z,6.50
2019-03-08T04:08:42.014Z,6.50
2019-03-08T04:11:16.057Z,6.40
2019-03-08T04:13:50.425Z,6.50
2019-03-08T04:16:24.385Z,6.50
2019-03-08T04:18:58.361Z,6.50
2019-03-08T04:21:32.245Z,6.50
2019-03-08T04:24:06.361Z,6.50
2019-03-08T04:26:40.231Z,6.50
2019-03-08T04:29:14.534Z,6.50
2019-03-08T04:31:48.743Z,6.50
2019-03-08T04:34:24.650Z,6.40
2019-03-08T04:36:58.945Z,6.50
2019-03-08T04:39:33.607Z,6.50
2019-03-08T04:42:07.465Z,6.50
2019-03-08T04:44:41.095Z,6.50
2019-03-08T04:47:15.699Z,6.50
2019-03-08T04:49:54.435Z,6.50
2019-03-08T04:52:28.431Z,6.50
2019-03-08T04:55:02.454Z,6.50
2019-03-08T04:57:35.893Z,6.50
2019-03-08T05:00:10.445Z,6.50
2019-03-08T05:02:44.308Z,6.50
2019-03-08T05:05:17.420Z,6.40
2019-03-08T05:07:51.171Z,6.40
2019-03-08T05:10:25.881Z,6.40
2019-03-08T05:12:59.172Z,6.40
2019-03-08T05:15:32.848Z,6.40
2019-03-08T05:18:06.157Z,6.40
2019-03-08T05:20:40.027Z,6.30
2019-03-08T05:23:14.561Z,6.40
2019-03-08T05:25:49.890Z,6.30
2019-03-08T05:28:24.205Z,6.30
2019-03-08T05:30:58.747Z,6.20
2019-03-08T05:33:32.826Z,6.20
2019-03-08T05:36:07.723Z,6.10
2019-03-08T05:38:41.108Z,6.20
2019-03-08T05:41:15.349Z,6.20
2019-03-08T05:43:49.810Z,6.20
2019-03-08T05:46:23.887Z,6.20
2019-03-08T05:49:00.181Z,6.20
2019-03-08T05:51:38.065Z,6.10
2019-03-08T05:54:13.667Z,6.10
2019-03-08T05:56:48.049Z,6.00
2019-03-08T05:59:23.512Z,6.00
2019-03-08T06:02:02.082Z,6.00
2019-03-08T06:04:35.217Z,6.00
2019-03-08T06:07:11.366Z,6.10
2019-03-08T06:10:26.890Z,6.10
2019-03-08T06:13:07.238Z,6.10
2019-03-08T06:15:43.342Z,6.10
2019-03-08T06:18:39.222Z,6.10
2019-03-08T06:21:19.267Z,6.10
2019-03-08T06:23:57.569Z,6.20
2019-03-08T06:26:31.796Z,6.20
2019-03-08T06:29:10.074Z,6.30
2019-03-08T06:31:44.556Z,6.40
2019-03-08T06:34:19.955Z,6.40
2019-03-08T06:36:53.762Z,6.50
2019-03-08T06:39:26.663Z,6.50
2019-03-08T06:41:58.993Z,6.60
2019-03-08T06:44:33.476Z,6.60
2019-03-08T06:47:05.823Z,6.60
2019-03-08T06:49:37.151Z,6.70
2019-03-08T06:52:08.692Z,6.70
2019-03-08T06:54:41.363Z,6.70
2019-03-08T06:57:14.501Z,6.70
2019-03-08T06:59:51.911Z,6.80
2019-03-08T07:02:30.277Z,6.80
2019-03-08T07:05:18.208Z,6.80
2019-03-08T07:07:51.926Z,6.80
2019-03-08T07:10:25.634Z,6.80
2019-03-08T07:13:03.158Z,6.80
2019-03-08T07:15:33.186Z,6.80
2019-03-08T07:18:12.258Z,6.90
2019-03-08T07:21:04.133Z,6.80
2019-03-08T07:23:59.870Z,6.90
2019-03-08T07:26:50.420Z,6.90
2019-03-08T07:29:41.428Z,7.00
2019-03-08T07:32:39.877Z,7.00
2019-03-08T07:35:34.329Z,7.00
2019-03-08T07:38:35.682Z,7.00
2019-03-08T07:41:28.975Z,7.10
2019-03-08T07:44:26.275Z,7.10
2019-03-08T07:47:18.847Z,7.20
2019-03-08T07:50:17.922Z,7.30
2019-03-08T07:53:10.340Z,7.20
2019-03-08T07:55:50.767Z,7.20
2019-03-08T07:58:40.405Z,7.20
2019-03-08T08:01:24.623Z,7.20
2019-03-08T08:04:09.793Z,7.30
2019-03-08T08:06:50.457Z,7.40
2019-03-08T08:09:40.893Z,7.50
2019-03-08T08:12:33.540Z,7.60
2019-03-08T08:15:21.858Z,7.70
2019-03-08T08:18:02.149Z,7.80
2019-03-08T08:20:42.100Z,7.80
2019-03-08T08:23:35.029Z,8.00
2019-03-08T08:26:17.436Z,8.10
2019-03-08T08:29:01.132Z,8.30
2019-03-08T08:31:49.552Z,8.30
2019-03-08T08:34:39.458Z,8.30
2019-03-08T08:37:32.155Z,8.30
2019-03-08T08:40:28.320Z,8.40
2019-03-08T08:43:10.012Z,8.50
2019-03-08T08:45:58.875Z,8.50
2019-03-08T08:48:51.689Z,8.60
2019-03-08T08:51:41.267Z,8.70
2019-03-08T08:54:45.762Z,8.70
2019-03-08T08:57:27.395Z,8.60
2019-03-08T09:00:35.312Z,8.70
2019-03-08T09:03:30.335Z,9.00
2019-03-08T09:06:20.887Z,9.00
2019-03-08T09:09:09.914Z,9.10
2019-03-08T09:11:58.537Z,9.20
2019-03-08T09:14:42.404Z,9.30
2019-03-08T09:17:53.112Z,9.50
2019-03-08T09:20:49.774Z,9.40
2019-03-08T09:24:02.500Z,9.50
2019-03-08T09:26:46.684Z,9.30
2019-03-08T09:29:47.207Z,9.30
2019-03-08T09:32:36.569Z,9.40
2019-03-08T09:35:22.077Z,9.30
2019-03-08T09:38:17.889Z,9.30
2019-03-08T09:41:06.000Z,9.40
2019-03-08T09:43:58.920Z,9.30
2019-03-08T09:46:49.296Z,9.10
2019-03-08T09:49:43.069Z,8.80
2019-03-08T09:52:32.509Z,8.80
2019-03-08T09:55:24.418Z,8.80
2019-03-08T09:58:14.079Z,8.70
2019-03-08T10:00:58.717Z,8.80
2019-03-08T10:03:48.888Z,9.10
2019-03-08T10:06:34.816Z,9.50
2019-03-08T10:09:34.355Z,9.70
2019-03-08T10:12:24.021Z,9.60
2019-03-08T10:15:06.214Z,9.50
2019-03-08T10:18:11.556Z,9.30
2019-03-08T10:21:01.037Z,9.30
2019-03-08T10:24:03.332Z,9.40
2019-03-08T10:26:52.962Z,9.50
2019-03-08T10:29:56.493Z,9.50
2019-03-08T10:32:41.287Z,9.50
2019-03-08T10:35:31.115Z,9.40
2019-03-08T10:38:25.206Z,9.30
2019-03-08T10:41:14.652Z,9.20
2019-03-08T10:44:09.113Z,9.30
2019-03-08T10:46:53.548Z,9.20
2019-03-08T10:49:43.037Z,9.00
2019-03-08T10:52:42.194Z,8.70
2019-03-08T10:55:33.914Z,7.90
2019-03-08T10:58:43.578Z,7.70
2019-03-08T11:01:28.711Z,7.50
2019-03-08T11:04:14.912Z,7.60
2019-03-08T11:07:14.586Z,7.70
2019-03-08T11:09:59.532Z,7.80
2019-03-08T11:12:51.794Z,8.00
2019-03-08T11:15:46.804Z,8.40
2019-03-08T11:18:36.320Z,8.90
2019-03-08T11:21:26.746Z,9.10
2019-03-08T11:24:16.179Z,9.40
2019-03-08T11:27:08.653Z,9.80
2019-03-08T11:29:58.291Z,10.50
2019-03-08T11:32:51.434Z,11.90
2019-03-08T11:35:56.136Z,13.00
2019-03-08T11:38:45.955Z,13.50
2019-03-08T11:41:38.533Z,13.10
2019-03-08T11:44:28.347Z,12.10
2019-03-08T11:47:26.223Z,11.30
2019-03-08T11:50:28.496Z,10.80
2019-03-08T11:53:30.892Z,10.40
2019-03-08T11:56:19.051Z,9.90
2019-03-08T11:59:07.311Z,9.80
2019-03-08T12:01:55.702Z,9.80
2019-03-08T12:05:04.606Z,9.90
2019-03-08T12:07:44.552Z,10.30
2019-03-08T12:10:28.840Z,10.60
2019-03-08T12:13:08.140Z,10.70
2019-03-08T12:15:59.720Z,10.80
2019-03-08T12:18:56.920Z,10.50
2019-03-08T12:21:38.781Z,10.40
2019-03-08T12:24:28.336Z,10.40
2019-03-08T12:27:15.302Z,10.40
2019-03-08T12:30:12.526Z,12.40
2019-03-08T12:33:12.642Z,14.20
2019-03-08T12:35:51.806Z,15.30
2019-03-08T12:38:41.293Z,16.30
2019-03-08T12:41:22.411Z,16.40
2019-03-08T12:44:14.692Z,16.30
2019-03-08T12:47:19.221Z,16.10
2019-03-08T12:50:06.398Z,14.40
2019-03-08T12:53:07.774Z,13.30
2019-03-08T12:56:03.947Z,14.00
2019-03-08T12:58:52.237Z,14.30
2019-03-08T13:01:29.753Z,14.80
2019-03-08T13:04:24.333Z,14.50
2019-03-08T13:07:04.538Z,13.80
2019-03-08T13:09:46.912Z,13.20
2019-03-08T13:12:19.363Z,12.80
2019-03-08T13:14:50.101Z,13.10
2019-03-08T13:17:21.315Z,14.40
2019-03-08T13:19:53.341Z,14.80
2019-03-08T13:22:26.861Z,14.50
2019-03-08T13:25:01.634Z,13.90
2019-03-08T13:27:33.121Z,13.70
2019-03-08T13:30:04.083Z,13.40
2019-03-08T13:32:38.724Z,13.40
2019-03-08T13:35:16.328Z,13.30
2019-03-08T13:37:47.195Z,14.10
2019-03-08T13:40:37.774Z,14.90
2019-03-08T13:43:17.733Z,15.00
2019-03-08T13:45:48.553Z,14.80
2019-03-08T13:48:20.705Z,14.10
2019-03-08T13:50:51.506Z,14.20
2019-03-08T13:53:24.436Z,14.40
2019-03-08T13:55:55.192Z,14.00
2019-03-08T13:58:31.124Z,13.60
2019-03-08T14:01:02.726Z,13.40
2019-03-08T14:03:33.487Z,13.50
2019-03-08T14:06:05.816Z,13.50
2019-03-08T14:08:37.461Z,13.00
2019-03-08T14:11:08.171Z,12.50
2019-03-08T14:13:38.935Z,12.70
2019-03-08T14:16:09.754Z,13.30
2019-03-08T14:18:40.462Z,13.80
2019-03-08T14:21:11.781Z,13.30
2019-03-08T14:23:44.350Z,13.10
2019-03-08T14:26:15.088Z,12.90
2019-03-08T14:28:47.162Z,12.60
2019-03-08T14:31:27.396Z,12.30
2019-03-08T14:33:59.902Z,12.20
2019-03-08T14:36:33.178Z,12.20
2019-03-08T14:39:07.958Z,12.30
2019-03-08T14:41:50.431Z,12.40
2019-03-08T14:44:57.829Z,12.30
2019-03-08T14:47:34.375Z,12.40
2019-03-08T14:50:09.988Z,12.40
2019-03-08T14:52:42.672Z,13.10
2019-03-08T14:55:22.189Z,14.00
2019-03-08T14:57:55.260Z,14.30
2019-03-08T15:00:30.443Z,13.60
2019-03-08T15:03:04.377Z,13.10
2019-03-08T15:05:42.035Z,12.70
2019-03-08T15:08:19.205Z,12.40
2019-03-08T15:11:15.722Z,12.30
2019-03-08T15:13:41.574Z,12.20
2019-03-08T15:16:18.670Z,12.10
2019-03-08T15:18:52.865Z,12.00
2019-03-08T15:21:25.516Z,12.00
2019-03-08T15:23:58.375Z,12.00
2019-03-08T15:26:32.284Z,11.90
2019-03-08T15:29:13.557Z,11.80
2019-03-08T15:31:49.918Z,12.50
2019-03-08T15:34:23.625Z,12.60
2019-03-08T15:36:57.231Z,12.20
2019-03-08T15:39:32.329Z,11.90
2019-03-08T15:42:08.030Z,11.70
2019-03-08T15:44:41.727Z,11.50
2019-03-08T15:47:23.928Z,11.40
2019-03-08T15:49:59.359Z,11.30
2019-03-08T15:52:33.544Z,11.30
2019-03-08T15:55:07.607Z,11.20
2019-03-08T15:57:39.336Z,11.20
2019-03-08T16:00:15.409Z,11.20
2019-03-08T16:02:47.903Z,11.20
2019-03-08T16:05:19.327Z,11.20
2019-03-08T16:07:50.377Z,11.20
2019-03-08T16:10:21.177Z,11.20
2019-03-08T16:12:52.036Z,11.20
2019-03-08T16:15:24.870Z,11.10
2019-03-08T16:17:56.887Z,11.00
2019-03-08T16:20:31.176Z,11.00
2019-03-08T16:23:11.004Z,10.90
2019-03-08T16:25:47.584Z,10.90
2019-03-08T16:28:17.437Z,10.80
2019-03-08T16:30:59.131Z,10.70
2019-03-08T16:34:00.457Z,10.70
2019-03-08T16:36:49.080Z,10.60
2019-03-08T16:39:43.271Z,10.60
2019-03-08T16:42:26.697Z,10.50
2019-03-08T16:45:21.547Z,10.50
2019-03-08T16:48:27.646Z,10.40
2019-03-08T16:51:15.410Z,10.30
2019-03-08T16:54:11.972Z,10.30
2019-03-08T16:57:03.117Z,10.20
2019-03-08T16:59:55.424Z,10.20
2019-03-08T17:02:51.580Z,10.10
2019-03-08T17:05:55.808Z,10.00
2019-03-08T17:08:49.697Z,10.00
2019-03-08T17:11:39.062Z,10.00
2019-03-08T17:14:47.410Z,9.90
2019-03-08T17:17:46.694Z,9.80
2019-03-08T17:20:37.307Z,9.80
2019-03-08T17:23:28.728Z,9.80
2019-03-08T17:26:16.850Z,9.90
2019-03-08T17:29:12.707Z,9.90
2019-03-08T17:32:06.951Z,9.90
2019-03-08T17:35:20.587Z,9.90
2019-03-08T17:38:21.063Z,9.90
2019-03-08T17:41:18.303Z,9.80
2019-03-08T17:44:31.786Z,9.90
2019-03-08T17:47:20.207Z,9.80
2019-03-08T17:50:19.626Z,9.80
2019-03-08T17:53:02.771Z,9.70
2019-03-08T17:55:56.101Z,9.60
2019-03-08T17:58:56.626Z,9.40
2019-03-08T18:01:50.778Z,9.40
2019-03-08T18:04:33.066Z,9.20
2019-03-08T18:07:28.588Z,9.20
2019-03-08T18:10:23.795Z,9.10
2019-03-08T18:13:28.491Z,9.00
2019-03-08T18:16:05.584Z,9.00
2019-03-08T18:19:09.723Z,9.00
2019-03-08T18:22:07.722Z,8.90
2019-03-08T18:25:02.481Z,8.90
2019-03-08T18:28:11.891Z,8.90
2019-03-08T18:31:10.163Z,8.80
2019-03-08T18:34:10.823Z,8.80
2019-03-08T18:37:15.252Z,8.80
2019-03-08T18:40:06.513Z,8.70
2019-03-08T18:42:56.330Z,8.70
2019-03-08T18:45:54.037Z,8.70
2019-03-08T18:48:39.696Z,8.70
2019-03-08T18:51:37.649Z,8.70
2019-03-08T18:54:36.272Z,8.70
2019-03-08T18:57:32.190Z,8.60
2019-03-08T19:00:35.294Z,8.60
2019-03-08T19:03:16.648Z,8.50
2019-03-08T19:06:02.613Z,8.50
2019-03-08T19:08:57.624Z,8.50
2019-03-08T19:11:45.061Z,8.50
2019-03-08T19:14:40.523Z,8.50
2019-03-08T19:17:30.601Z,8.50
2019-03-08T19:20:26.362Z,8.50
2019-03-08T19:23:10.373Z,8.60
2019-03-08T19:25:54.806Z,8.60
2019-03-08T19:28:45.690Z,8.50
2019-03-08T19:31:33.918Z,8.60
2019-03-08T19:34:31.014Z,8.60
2019-03-08T19:37:17.555Z,8.60
2019-03-08T19:40:11.853Z,8.60
2019-03-08T19:43:09.371Z,8.60
2019-03-08T19:46:02.503Z,8.60
2019-03-08T19:49:05.935Z,8.50
2019-03-08T19:52:03.073Z,8.50
2019-03-08T19:54:53.334Z,8.50
2019-03-08T19:57:48.192Z,8.50
2019-03-08T20:00:32.971Z,8.60
2019-03-08T20:03:17.420Z,8.60
2019-03-08T20:06:01.860Z,8.60
2019-03-08T20:09:00.535Z,8.60
2019-03-08T20:11:57.670Z,8.70
2019-03-08T20:15:01.150Z,8.70
2019-03-08T20:17:44.771Z,8.70
2019-03-08T20:20:29.373Z,8.70
2019-03-08T20:23:15.226Z,8.80
2019-03-08T20:26:17.527Z,8.80
2019-03-08T20:29:13.341Z,8.80
2019-03-08T20:32:10.026Z,8.70
2019-03-08T20:35:07.403Z,8.70
2019-03-08T20:38:14.726Z,8.70
2019-03-08T20:40:57.930Z,8.60
2019-03-08T20:43:46.968Z,8.70
2019-03-08T20:46:26.340Z,8.60
2019-03-08T20:49:02.089Z,8.60
2019-03-08T20:51:41.883Z,8.60
2019-03-08T20:54:15.394Z,8.60
2019-03-08T20:56:48.969Z,8.60
2019-03-08T20:59:26.415Z,8.60
2019-03-08T21:05:46.131Z,8.60
2019-03-08T21:08:21.248Z,8.60
2019-03-08T21:10:58.650Z,8.60
2019-03-08T21:13:34.562Z,8.60
2019-03-08T21:16:07.949Z,8.60
2019-03-08T21:18:40.743Z,8.60
2019-03-08T21:21:16.674Z,8.70
2019-03-08T21:23:52.898Z,8.70
2019-03-08T21:26:27.617Z,8.70
2019-03-08T21:29:01.268Z,8.80
2019-03-08T21:31:35.966Z,8.80
2019-03-08T21:34:12.214Z,8.80
2019-03-08T21:36:52.078Z,8.80
2019-03-08T21:39:28.710Z,8.70
2019-03-08T21:42:04.716Z,8.80
2019-03-08T21:44:38.343Z,8.80
2019-03-08T21:47:11.791Z,8.80
2019-03-08T21:49:45.982Z,8.80
2019-03-08T21:52:19.656Z,8.80
2019-03-08T21:54:54.721Z,8.90
2019-03-08T21:57:29.231Z,8.90
2019-03-08T22:00:04.158Z,8.90
2019-03-08T22:02:43.161Z,8.90
2019-03-08T22:05:25.945Z,8.90
2019-03-08T22:08:00.842Z,8.90
2019-03-08T22:11:03.120Z,9.00
2019-03-08T22:13:37.657Z,9.00
2019-03-08T22:16:12.663Z,9.00
2019-03-08T22:18:48.099Z,9.00
2019-03-08T22:21:23.752Z,9.10
2019-03-08T22:23:58.972Z,9.00
2019-03-08T22:26:33.094Z,9.00
2019-03-08T22:29:07.638Z,8.90
2019-03-08T22:31:41.330Z,8.70
2019-03-08T22:34:14.933Z,8.60
2019-03-08T22:36:48.231Z,8.50
2019-03-08T22:39:27.084Z,8.40
2019-03-08T22:42:02.894Z,8.50
2019-03-08T22:44:36.566Z,8.60
2019-03-08T22:47:10.405Z,8.70
2019-03-08T22:49:45.405Z,8.70
2019-03-08T22:52:18.963Z,8.80
2019-03-08T22:54:54.709Z,8.80
2019-03-08T22:57:28.989Z,8.70
2019-03-08T23:00:03.446Z,8.60
2019-03-08T23:02:42.364Z,8.60
2019-03-08T23:05:19.266Z,8.60
2019-03-08T23:07:52.211Z,8.70
2019-03-08T23:10:32.369Z,8.60
2019-03-08T23:13:08.289Z,8.60
2019-03-08T23:15:45.744Z,8.50
2019-03-08T23:18:20.950Z,8.50
2019-03-08T23:20:57.224Z,8.50
2019-03-08T23:23:34.900Z,8.40
2019-03-08T23:26:08.285Z,8.30
2019-03-08T23:29:13.316Z,8.20
2019-03-08T23:32:09.880Z,8.20
2019-03-08T23:34:47.645Z,8.20
2019-03-08T23:37:22.187Z,8.30
2019-03-08T23:39:56.582Z,8.30
2019-03-08T23:42:30.157Z,8.40
2019-03-08T23:45:10.756Z,8.40
2019-03-08T23:47:44.845Z,8.50
2019-03-08T23:50:21.391Z,8.50
2019-03-08T23:52:55.286Z,8.50
2019-03-08T23:55:29.250Z,8.50
2019-03-08T23:58:07.790Z,8.50
